createdAt,value
2022-11-18T00:01:55.132Z,8.70
2022-11-18T00:04:22.960Z,8.70
2022-11-18T00:06:50.900Z,8.60
2022-11-18T00:09:18.095Z,8.60
2022-11-18T00:12:04.591Z,8.60
2022-11-18T00:14:32.677Z,8.60
2022-11-18T00:17:04.800Z,8.60
2022-11-18T00:19:37.561Z,8.60
2022-11-18T00:22:06.416Z,8.70
2022-11-18T00:24:34.247Z,8.70
2022-11-18T00:27:02.295Z,8.70
2022-11-18T00:29:30.888Z,8.70
2022-11-18T00:31:58.812Z,8.70
2022-11-18T00:34:26.065Z,8.70
2022-11-18T00:36:54.187Z,8.60
2022-11-18T00:39:21.823Z,8.60
2022-11-18T00:42:08.192Z,8.60
2022-11-18T00:44:35.147Z,8.50
2022-11-18T00:47:03.639Z,8.50
2022-11-18T00:49:30.556Z,8.40
2022-11-18T00:51:57.443Z,8.40
2022-11-18T00:54:24.334Z,8.30
2022-11-18T00:56:51.406Z,8.30
2022-11-18T00:59:18.507Z,8.30
2022-11-18T01:01:45.775Z,8.30
2022-11-18T01:04:12.712Z,8.30
2022-11-18T01:06:39.659Z,8.30
2022-11-18T01:09:06.681Z,8.30
2022-11-18T01:11:51.900Z,8.30
2022-11-18T01:14:18.807Z,8.30
2022-11-18T01:16:51.078Z,8.30
2022-11-18T01:19:19.399Z,8.30
2022-11-18T01:21:46.772Z,8.30
2022-11-18T01:24:15.486Z,8.30
2022-11-18T01:27:23.366Z,8.30
2022-11-18T01:29:50.280Z,8.30
2022-11-18T01:32:24.576Z,8.30
2022-11-18T01:34:52.383Z,8.30
2022-11-18T01:37:39.428Z,8.40
2022-11-18T01:40:08.309Z,8.40
2022-11-18T01:42:35.657Z,8.40
2022-11-18T01:45:10.021Z,8.40
2022-11-18T01:48:09.336Z,8.40
2022-11-18T01:50:39.670Z,8.40
2022-11-18T01:53:12.274Z,8.40
2022-11-18T01:55:43.168Z,8.40
2022-11-18T01:58:15.948Z,8.40
2022-11-18T02:00:42.792Z,8.50
2022-11-18T02:03:09.765Z,8.50
2022-11-18T02:05:38.121Z,8.50
2022-11-18T02:08:07.604Z,8.50
2022-11-18T02:10:34.488Z,8.50
2022-11-18T02:13:01.949Z,8.40
2022-11-18T02:15:57.312Z,8.40
2022-11-18T02:18:48.036Z,8.40
2022-11-18T02:21:34.233Z,8.40
2022-11-18T02:24:20.652Z,8.40
2022-11-18T02:27:01.568Z,8.30
2022-11-18T02:29:48.444Z,8.30
2022-11-18T02:32:21.449Z,8.30
2022-11-18T02:34:50.590Z,8.30
2022-11-18T02:37:36.017Z,8.30
2022-11-18T02:40:14.215Z,8.30
2022-11-18T02:42:44.976Z,8.30
2022-11-18T02:45:17.618Z,8.30
2022-11-18T02:47:48.025Z,8.30
2022-11-18T02:50:19.699Z,8.20
2022-11-18T02:52:47.713Z,8.20
2022-11-18T02:55:15.515Z,8.20
2022-11-18T02:57:45.899Z,8.20
2022-11-18T03:00:13.706Z,8.20
2022-11-18T03:02:50.003Z,8.20
2022-11-18T03:05:38.964Z,8.20
2022-11-18T03:08:19.639Z,8.20
2022-11-18T03:11:10.073Z,8.10
2022-11-18T03:14:04.463Z,8.10
2022-11-18T03:16:40.874Z,8.10
2022-11-18T03:19:24.370Z,8.10
2022-11-18T03:22:14.554Z,8.10
2022-11-18T03:24:54.419Z,8.00
2022-11-18T03:27:30.813Z,8.00
2022-11-18T03:30:04.891Z,8.00
2022-11-18T03:32:36.455Z,8.00
2022-11-18T03:35:28.430Z,8.00
2022-11-18T03:38:08.837Z,8.00
2022-11-18T03:40:39.738Z,7.90
2022-11-18T03:43:11.502Z,7.90
2022-11-18T03:46:02.547Z,7.90
2022-11-18T03:48:34.262Z,7.90
2022-11-18T03:51:02.459Z,7.90
2022-11-18T03:53:33.730Z,7.90
2022-11-18T03:56:24.990Z,7.90
2022-11-18T03:59:02.085Z,8.00
2022-11-18T04:01:40.601Z,8.00
2022-11-18T04:04:08.116Z,8.10
2022-11-18T04:06:57.205Z,8.10
2022-11-18T04:09:29.720Z,8.20
2022-11-18T04:12:06.304Z,8.30
2022-11-18T04:14:39.328Z,8.30
2022-11-18T04:17:44.087Z,8.40
2022-11-18T04:20:17.968Z,8.40
2022-11-18T04:22:44.960Z,8.40
2022-11-18T04:25:12.555Z,8.40
2022-11-18T04:28:00.471Z,8.40
2022-11-18T04:30:27.476Z,8.30
2022-11-18T04:32:54.291Z,8.30
2022-11-18T04:35:21.351Z,8.20
2022-11-18T04:37:49.461Z,8.20
2022-11-18T04:40:16.678Z,8.20
2022-11-18T04:42:43.543Z,8.30
2022-11-18T04:45:10.883Z,8.30
2022-11-18T04:47:38.396Z,8.20
2022-11-18T04:50:05.866Z,8.30
2022-11-18T04:52:32.814Z,8.30
2022-11-18T04:54:59.659Z,8.30
2022-11-18T04:57:46.427Z,8.30
2022-11-18T05:00:13.599Z,8.30
2022-11-18T05:02:40.533Z,8.40
2022-11-18T05:05:07.856Z,8.40
2022-11-18T05:07:34.880Z,8.40
2022-11-18T05:10:01.743Z,8.40
2022-11-18T05:12:47.561Z,8.40
2022-11-18T05:15:15.213Z,8.40
2022-11-18T05:17:42.370Z,8.40
2022-11-18T05:20:09.992Z,8.40
2022-11-18T05:22:36.904Z,8.50
2022-11-18T05:25:04.396Z,8.50
2022-11-18T05:27:31.411Z,8.50
2022-11-18T05:29:58.214Z,8.60
2022-11-18T05:32:25.463Z,8.60
2022-11-18T05:34:52.313Z,8.60
2022-11-18T05:37:19.389Z,8.60
2022-11-18T05:39:46.209Z,8.60
2022-11-18T05:42:31.922Z,8.60
2022-11-18T05:44:59.192Z,8.60
2022-11-18T05:47:28.322Z,8.60
2022-11-18T05:49:55.136Z,8.60
2022-11-18T05:52:21.973Z,8.60
2022-11-18T05:54:51.535Z,8.60
2022-11-18T05:57:38.848Z,8.60
2022-11-18T06:00:06.165Z,8.60
2022-11-18T06:02:40.466Z,8.60
2022-11-18T06:05:07.868Z,8.60
2022-11-18T06:07:40.719Z,8.60
2022-11-18T06:10:07.997Z,8.60
2022-11-18T06:12:42.749Z,8.60
2022-11-18T06:15:33.315Z,8.60
2022-11-18T06:18:21.368Z,8.60
2022-11-18T06:20:48.246Z,8.60
2022-11-18T06:23:15.360Z,8.60
2022-11-18T06:25:42.656Z,8.60
2022-11-18T06:28:12.420Z,8.60
2022-11-18T06:30:39.780Z,8.60
2022-11-18T06:33:07.170Z,8.60
2022-11-18T06:35:34.070Z,8.60
2022-11-18T06:38:20.039Z,8.60
2022-11-18T06:40:47.052Z,8.60
2022-11-18T06:43:32.396Z,8.70
2022-11-18T06:46:19.242Z,8.70
2022-11-18T06:48:46.473Z,8.70
2022-11-18T06:51:13.712Z,8.70
2022-11-18T06:53:40.659Z,8.70
2022-11-18T06:56:12.730Z,8.60
2022-11-18T06:58:39.955Z,8.60
2022-11-18T07:01:17.223Z,8.60
2022-11-18T07:03:45.924Z,8.50
2022-11-18T07:06:15.599Z,8.50
2022-11-18T07:08:43.813Z,8.50
2022-11-18T07:11:13.301Z,8.60
2022-11-18T07:13:43.831Z,8.60
2022-11-18T07:16:20.639Z,8.60
2022-11-18T07:18:49.478Z,8.60
2022-11-18T07:21:19.208Z,8.60
2022-11-18T07:23:46.966Z,8.70
2022-11-18T07:26:15.122Z,8.60
2022-11-18T07:28:42.524Z,8.50
2022-11-18T07:31:15.041Z,8.40
2022-11-18T07:33:45.024Z,8.30
2022-11-18T07:36:15.006Z,8.20
2022-11-18T07:38:41.915Z,8.10
2022-11-18T07:41:11.571Z,8.10
2022-11-18T07:43:39.148Z,8.10
2022-11-18T07:46:20.772Z,8.00
2022-11-18T07:48:49.487Z,8.00
2022-11-18T07:51:19.771Z,8.00
2022-11-18T07:53:47.151Z,8.00
2022-11-18T07:56:14.894Z,8.00
2022-11-18T07:58:42.570Z,8.10
2022-11-18T08:01:17.698Z,8.10
2022-11-18T08:03:45.676Z,8.20
2022-11-18T08:06:15.855Z,8.20
2022-11-18T08:08:43.478Z,8.30
2022-11-18T08:11:21.927Z,8.30
2022-11-18T08:13:49.788Z,8.40
2022-11-18T08:16:23.262Z,8.40
2022-11-18T08:18:51.038Z,8.50
2022-11-18T08:21:19.799Z,8.50
2022-11-18T08:23:55.083Z,8.50
2022-11-18T08:26:22.319Z,8.50
2022-11-18T08:28:49.607Z,8.50
2022-11-18T08:31:27.943Z,8.60
2022-11-18T08:34:13.516Z,8.50
2022-11-18T08:36:43.591Z,8.60
2022-11-18T08:39:12.327Z,8.60
2022-11-18T08:41:42.324Z,8.60
2022-11-18T08:44:13.502Z,8.60
2022-11-18T08:47:19.092Z,8.60
2022-11-18T08:49:46.022Z,8.60
2022-11-18T08:52:13.043Z,8.70
2022-11-18T08:54:39.857Z,8.80
2022-11-18T08:57:06.892Z,8.90
2022-11-18T08:59:33.870Z,8.90
2022-11-18T09:02:00.900Z,8.90
2022-11-18T09:04:27.860Z,9.00
2022-11-18T09:06:54.865Z,9.10
2022-11-18T09:09:22.421Z,9.10
2022-11-18T09:11:49.603Z,9.20
2022-11-18T09:17:05.587Z,9.30
2022-11-18T09:19:46.652Z,9.30
2022-11-18T09:22:14.324Z,9.30
2022-11-18T09:24:41.349Z,9.30
2022-11-18T09:27:17.014Z,9.40
2022-11-18T09:29:44.926Z,9.40
2022-11-18T09:32:11.816Z,9.40
2022-11-18T09:34:38.833Z,9.40
2022-11-18T09:37:07.156Z,9.50
2022-11-18T09:39:37.260Z,9.70
2022-11-18T09:42:13.340Z,10.00
2022-11-18T09:44:54.690Z,10.40
2022-11-18T09:47:31.773Z,11.00
2022-11-18T09:53:18.295Z,12.40
2022-11-18T09:55:45.550Z,13.10
2022-11-18T09:58:26.482Z,13.70
2022-11-18T10:00:53.431Z,14.10
2022-11-18T10:03:30.780Z,14.50
2022-11-18T10:06:03.878Z,14.90
2022-11-18T10:08:47.121Z,15.10
2022-11-18T10:11:18.052Z,15.30
2022-11-18T10:14:09.392Z,15.50
2022-11-18T10:16:43.744Z,15.80
2022-11-18T10:19:43.405Z,16.30
2022-11-18T10:22:34.390Z,16.40
2022-11-18T10:25:01.413Z,16.50
2022-11-18T10:27:39.313Z,16.80
2022-11-18T10:30:16.890Z,17.20
2022-11-18T10:33:02.960Z,17.60
2022-11-18T10:35:34.882Z,18.00
2022-11-18T10:38:18.814Z,18.40
2022-11-18T10:40:56.390Z,18.70
2022-11-18T10:43:52.339Z,18.90
2022-11-18T10:46:25.903Z,19.00
2022-11-18T10:49:13.164Z,18.90
2022-11-18T10:51:42.923Z,19.00
2022-11-18T10:54:19.975Z,19.10
2022-11-18T10:57:11.031Z,19.00
2022-11-18T10:59:42.386Z,19.00
2022-11-18T11:02:19.396Z,19.10
2022-11-18T11:04:48.696Z,19.30
2022-11-18T11:07:16.907Z,19.50
2022-11-18T11:09:43.985Z,19.60
2022-11-18T11:12:17.675Z,19.80
2022-11-18T11:14:54.897Z,20.20
2022-11-18T11:17:32.097Z,20.60
2022-11-18T11:20:15.091Z,20.70
2022-11-18T11:22:42.135Z,20.90
2022-11-18T11:28:30.333Z,20.90
2022-11-18T11:31:17.629Z,20.40
2022-11-18T11:34:20.225Z,18.90
2022-11-18T11:37:15.137Z,17.20
2022-11-18T11:40:12.156Z,15.70
2022-11-18T11:42:57.110Z,14.70
2022-11-18T11:45:41.987Z,13.80
2022-11-18T11:48:47.235Z,13.20
2022-11-18T11:51:22.679Z,12.80
2022-11-18T11:54:14.188Z,12.50
2022-11-18T11:57:00.342Z,12.30
2022-11-18T11:59:40.478Z,12.10
2022-11-18T12:02:36.252Z,12.10
2022-11-18T12:05:28.830Z,12.00
2022-11-18T12:08:06.314Z,11.90
2022-11-18T12:10:44.702Z,11.90
2022-11-18T12:13:21.215Z,11.80
2022-11-18T12:16:06.239Z,11.80
2022-11-18T12:18:46.657Z,11.80
2022-11-18T12:21:43.887Z,11.80
2022-11-18T12:24:24.494Z,11.90
2022-11-18T12:26:52.931Z,11.90
2022-11-18T12:29:20.017Z,11.90
2022-11-18T12:31:48.277Z,11.90
2022-11-18T12:34:38.540Z,11.90
2022-11-18T12:37:24.278Z,11.80
2022-11-18T12:39:59.809Z,11.70
2022-11-18T12:42:56.205Z,11.70
2022-11-18T12:45:41.702Z,11.60
2022-11-18T12:48:27.380Z,11.70
2022-11-18T12:50:57.096Z,11.70
2022-11-18T12:53:35.737Z,11.70
2022-11-18T12:56:12.199Z,11.70
2022-11-18T12:58:54.618Z,11.80
2022-11-18T13:01:30.696Z,11.90
2022-11-18T13:04:20.594Z,12.20
2022-11-18T13:06:54.088Z,12.50
2022-11-18T13:09:24.807Z,12.60
2022-11-18T13:11:56.423Z,12.70
2022-11-18T13:15:01.208Z,12.60
2022-11-18T13:17:48.875Z,12.50
2022-11-18T13:20:39.643Z,12.40
2022-11-18T13:23:42.564Z,12.50
2022-11-18T13:26:18.852Z,12.60
2022-11-18T13:29:23.263Z,12.60
2022-11-18T13:31:50.222Z,12.60
2022-11-18T13:34:25.734Z,12.50
2022-11-18T13:36:53.982Z,12.40
2022-11-18T13:39:24.345Z,12.40
2022-11-18T13:42:02.499Z,12.40
2022-11-18T13:44:34.876Z,12.40
2022-11-18T13:47:27.614Z,12.60
2022-11-18T13:50:07.015Z,12.60
2022-11-18T13:52:56.771Z,12.60
2022-11-18T13:55:51.941Z,12.60
2022-11-18T13:58:18.767Z,12.60
2022-11-18T14:00:57.237Z,12.60
2022-11-18T14:03:27.501Z,12.50
2022-11-18T14:05:55.316Z,12.50
2022-11-18T14:08:31.232Z,12.40
2022-11-18T14:10:58.795Z,12.30
2022-11-18T14:13:33.095Z,12.30
2022-11-18T14:16:02.471Z,12.20
2022-11-18T14:18:37.168Z,12.20
2022-11-18T14:21:06.261Z,12.20
2022-11-18T14:23:37.450Z,12.20
2022-11-18T14:26:06.836Z,12.10
2022-11-18T14:28:37.052Z,12.10
2022-11-18T14:31:12.479Z,12.00
2022-11-18T14:33:39.618Z,12.00
2022-11-18T14:36:17.997Z,12.00
2022-11-18T14:41:48.649Z,12.00
2022-11-18T14:44:17.211Z,12.00
2022-11-18T14:46:48.795Z,11.90
2022-11-18T14:49:22.230Z,11.90
2022-11-18T14:51:50.213Z,11.90
2022-11-18T14:54:25.500Z,11.90
2022-11-18T14:56:57.309Z,11.90
2022-11-18T14:59:24.614Z,11.90
2022-11-18T15:01:51.585Z,11.80
2022-11-18T15:04:20.586Z,11.80
2022-11-18T15:06:48.139Z,11.80
2022-11-18T15:09:15.111Z,11.80
2022-11-18T15:11:42.110Z,11.70
2022-11-18T15:14:08.980Z,11.70
2022-11-18T15:16:36.252Z,11.70
2022-11-18T15:19:05.351Z,11.70
2022-11-18T15:21:32.730Z,11.70
2022-11-18T15:23:59.576Z,11.70
2022-11-18T15:26:30.357Z,11.60
2022-11-18T15:28:57.958Z,11.70
2022-11-18T15:31:25.853Z,11.60
2022-11-18T15:33:53.532Z,11.60
2022-11-18T15:36:23.093Z,11.60
2022-11-18T15:38:51.341Z,11.50
2022-11-18T15:41:27.175Z,11.50
2022-11-18T15:43:55.570Z,11.50
2022-11-18T15:46:26.505Z,11.50
2022-11-18T15:48:55.071Z,11.40
2022-11-18T15:51:22.737Z,11.40
2022-11-18T15:53:49.654Z,11.30
2022-11-18T15:56:23.234Z,11.30
2022-11-18T15:58:56.777Z,11.30
2022-11-18T16:01:24.664Z,11.30
2022-11-18T16:03:51.714Z,11.30
2022-11-18T16:06:18.688Z,11.20
2022-11-18T16:08:45.483Z,11.20
2022-11-18T16:11:33.471Z,11.20
2022-11-18T16:14:11.498Z,11.20
2022-11-18T16:16:40.271Z,11.20
2022-11-18T16:19:09.630Z,11.10
2022-11-18T16:21:38.971Z,11.10
2022-11-18T16:24:08.164Z,11.10
2022-11-18T16:26:37.091Z,11.10
2022-11-18T16:29:06.058Z,11.10
2022-11-18T16:31:43.575Z,11.10
2022-11-18T16:34:16.635Z,11.10
2022-11-18T16:36:45.750Z,11.00
2022-11-18T16:39:17.765Z,11.00
2022-11-18T16:41:45.992Z,11.00
2022-11-18T16:44:16.728Z,11.00
2022-11-18T16:46:51.970Z,11.00
2022-11-18T16:49:21.463Z,11.00
2022-11-18T16:51:50.466Z,11.00
2022-11-18T16:54:23.280Z,10.90
2022-11-18T16:56:51.766Z,10.90
2022-11-18T16:59:22.027Z,10.90
2022-11-18T17:01:50.580Z,10.90
2022-11-18T17:04:18.609Z,10.90
2022-11-18T17:06:47.459Z,10.90
2022-11-18T17:09:17.112Z,10.90
2022-11-18T17:11:44.554Z,10.90
2022-11-18T17:14:12.237Z,10.90
2022-11-18T17:16:41.404Z,10.90
2022-11-18T17:19:13.950Z,10.80
2022-11-18T17:21:40.834Z,10.80
2022-11-18T17:24:08.719Z,10.80
2022-11-18T17:26:41.474Z,10.80
2022-11-18T17:29:10.605Z,10.80
2022-11-18T17:31:37.940Z,10.80
2022-11-18T17:34:05.358Z,10.70
2022-11-18T17:36:52.154Z,10.80
2022-11-18T17:39:20.709Z,10.70
2022-11-18T17:42:06.374Z,10.70
2022-11-18T17:44:33.192Z,10.70
2022-11-18T17:47:02.734Z,10.70
2022-11-18T17:49:29.717Z,10.70
2022-11-18T17:52:21.863Z,10.70
2022-11-18T17:54:50.712Z,10.70
2022-11-18T17:57:17.834Z,10.70
2022-11-18T17:59:44.675Z,10.70
2022-11-18T18:02:12.451Z,10.70
2022-11-18T18:04:39.453Z,10.70
2022-11-18T18:07:08.825Z,10.70
2022-11-18T18:09:35.950Z,10.70
2022-11-18T18:12:22.693Z,10.60
2022-11-18T18:14:49.743Z,10.60
2022-11-18T18:17:17.146Z,10.60
2022-11-18T18:19:43.983Z,10.60
2022-11-18T18:22:10.779Z,10.60
2022-11-18T18:24:37.643Z,10.60
2022-11-18T18:27:05.742Z,10.60
2022-11-18T18:29:32.540Z,10.50
2022-11-18T18:31:59.903Z,10.50
2022-11-18T18:34:26.743Z,10.50
2022-11-18T18:36:57.750Z,10.50
2022-11-18T18:39:24.932Z,10.50
2022-11-18T18:41:51.778Z,10.50
2022-11-18T18:44:19.147Z,10.50
2022-11-18T18:46:46.313Z,10.50
2022-11-18T18:49:15.789Z,10.40
2022-11-18T18:51:49.012Z,10.40
2022-11-18T18:54:18.637Z,10.40
2022-11-18T18:57:23.606Z,10.40
2022-11-18T18:59:50.509Z,10.30
2022-11-18T19:02:17.315Z,10.30
2022-11-18T19:04:45.029Z,10.30
2022-11-18T19:07:31.556Z,10.30
2022-11-18T19:09:58.774Z,10.30
2022-11-18T19:12:45.697Z,10.20
2022-11-18T19:15:14.134Z,10.20
2022-11-18T19:17:42.179Z,10.20
2022-11-18T19:20:30.557Z,10.20
2022-11-18T19:23:10.075Z,10.20
2022-11-18T19:25:37.421Z,10.20
2022-11-18T19:28:06.495Z,10.20
2022-11-18T19:30:34.143Z,10.20
2022-11-18T19:33:01.136Z,10.20
2022-11-18T19:38:01.824Z,10.10
2022-11-18T19:40:28.631Z,10.10
2022-11-18T19:42:55.475Z,10.10
2022-11-18T19:45:22.487Z,10.10
2022-11-18T19:48:10.285Z,10.10
2022-11-18T19:50:37.254Z,10.10
2022-11-18T19:53:25.419Z,10.10
2022-11-18T19:55:56.919Z,10.10
2022-11-18T19:58:24.133Z,10.10
2022-11-18T20:00:51.680Z,10.10
2022-11-18T20:03:18.646Z,10.10
2022-11-18T20:05:54.538Z,10.00
2022-11-18T20:08:22.846Z,10.10
2022-11-18T20:10:51.123Z,10.10
2022-11-18T20:13:18.808Z,10.10
2022-11-18T20:15:45.629Z,10.10
2022-11-18T20:18:15.333Z,10.10
2022-11-18T20:20:42.115Z,10.10
2022-11-18T20:23:09.023Z,10.10
2022-11-18T20:25:36.005Z,10.00
2022-11-18T20:28:04.242Z,10.00
2022-11-18T20:30:31.198Z,10.00
2022-11-18T20:32:59.965Z,9.90
2022-11-18T20:35:26.922Z,9.90
2022-11-18T20:37:56.074Z,9.90
2022-11-18T20:40:23.004Z,9.80
2022-11-18T20:43:08.531Z,9.80
2022-11-18T20:45:35.397Z,9.80
2022-11-18T20:48:03.627Z,9.70
2022-11-18T20:50:30.674Z,9.70
2022-11-18T20:52:57.526Z,9.70
2022-11-18T20:55:24.390Z,9.70
2022-11-18T20:57:51.564Z,9.70
2022-11-18T21:00:18.644Z,9.70
2022-11-18T21:02:45.496Z,9.60
2022-11-18T21:05:12.403Z,9.70
2022-11-18T21:07:39.371Z,9.70
2022-11-18T21:10:08.034Z,9.70
2022-11-18T21:12:34.892Z,9.70
2022-11-18T21:15:01.839Z,9.70
2022-11-18T21:17:28.973Z,9.70
2022-11-18T21:19:55.814Z,9.70
2022-11-18T21:22:22.730Z,9.70
2022-11-18T21:24:49.602Z,9.70
2022-11-18T21:27:36.674Z,9.70
2022-11-18T21:30:03.799Z,9.70
2022-11-18T21:32:30.587Z,9.70
2022-11-18T21:34:57.426Z,9.70
2022-11-18T21:37:26.409Z,9.70
2022-11-18T21:39:53.364Z,9.70
2022-11-18T21:42:20.179Z,9.70
2022-11-18T21:44:46.980Z,9.70
2022-11-18T21:47:14.105Z,9.80
2022-11-18T21:49:40.963Z,9.70
2022-11-18T21:52:07.832Z,9.70
2022-11-18T21:54:36.695Z,9.70
2022-11-18T21:57:25.139Z,9.70
2022-11-18T21:59:52.023Z,9.70
2022-11-18T22:02:18.967Z,9.70
2022-11-18T22:04:54.988Z,9.70
2022-11-18T22:07:24.010Z,9.60
2022-11-18T22:09:51.612Z,9.70
2022-11-18T22:12:18.453Z,9.70
2022-11-18T22:14:45.269Z,9.70
2022-11-18T22:17:14.557Z,9.70
2022-11-18T22:19:41.403Z,9.60
2022-11-18T22:22:08.291Z,9.60
2022-11-18T22:24:35.141Z,9.60
2022-11-18T22:27:11.122Z,9.60
2022-11-18T22:29:38.426Z,9.60
2022-11-18T22:32:05.250Z,9.50
2022-11-18T22:34:35.270Z,9.60
2022-11-18T22:37:03.119Z,9.50
2022-11-18T22:39:30.108Z,9.50
2022-11-18T22:42:15.427Z,9.50
2022-11-18T22:44:42.288Z,9.50
2022-11-18T22:47:09.318Z,9.40
2022-11-18T22:49:36.186Z,9.40
2022-11-18T22:52:03.041Z,9.40
2022-11-18T22:54:38.975Z,9.40
2022-11-18T22:57:08.697Z,9.40
2022-11-18T22:59:35.605Z,9.40
2022-11-18T23:02:02.503Z,9.40
2022-11-18T23:04:29.475Z,9.30
2022-11-18T23:07:00.769Z,9.30
2022-11-18T23:09:27.790Z,9.30
2022-11-18T23:12:13.160Z,9.30
2022-11-18T23:14:40.062Z,9.30
2022-11-18T23:17:07.048Z,9.30
2022-11-18T23:19:33.978Z,9.30
2022-11-18T23:22:00.784Z,9.30
2022-11-18T23:24:27.641Z,9.20
2022-11-18T23:26:55.651Z,9.30
2022-11-18T23:29:22.804Z,9.30
2022-11-18T23:31:49.868Z,9.20
2022-11-18T23:34:17.137Z,9.30
2022-11-18T23:36:44.397Z,9.30
2022-11-18T23:39:12.307Z,9.30
2022-11-18T23:41:39.807Z,9.30
2022-11-18T23:44:06.954Z,9.30
2022-11-18T23:46:36.140Z,9.30
2022-11-18T23:49:06.925Z,9.30
2022-11-18T23:51:33.735Z,9.30
2022-11-18T23:54:00.574Z,9.20
2022-11-18T23:56:28.599Z,9.20
2022-11-18T23:58:56.596Z,9.20
